Detall de PIREP

Printer-friendly versionPDF version

[2009/12/07 15:56:00]
Flight IATA:CT2202
Pilot Number:026
Company ICAO:CAT
Aircraft Type:DC85/A
PAX:136
Departing Airport: LFMP
Destination Airport: LFBD
Alternate Airport:LFBO
Online: VATSIM
Route:ORBIL G36 GAI G39 SECHE R17 MIRBA
Flight Level:FL190
No Slew and time accel
No pause
Crash detect
Detect pilot in Cockpit between each 30 and 45 minutes
15:56 Zero fuel Weight: 185719 Lbs, Fuel Weight: 25998 Lbs
15:56 VATSIM:LFMP 062230Z AUTO 26003KT 9999NDV BKN019 BKN150 BKN230 11/09 Q1016
15:56 VATSIM:LFBD 062230Z 19003KT 9999 BKN011 12/11 Q1014 TEMPO 5000 -RA BKN008
15:57 VOICE CATALONIAN / IATA CT2202
16:02 Parking Brakes off
16:08 Take-off
16:08 Take off Weight: 210604 Lbs
16:08 Wind: 273º @ 003 Knots Heading: 149º
16:08 POS N42º 44´ 11´´ E002º 52´ 35´´
16:08 Gear Up: 168 Knots
16:08 Flaps:3 at 169 Knots
16:09 Flaps:2 at 170 Knots
16:10 Flaps:1 at 202 Knots
16:11
Flaps:0 at 204 Knots
16:15 TOC
16:15 Fuel Weight: 22150 Lb
16:23 Wind:118º@007 Knots Heading: 331º Ground Speed: 426 Knots Altitude 19078 ft
16:33 TOD
16:33 Fuel Weight: 17824 Lb
16:38 Wind:160º@012 Knots Heading: 299º Ground Speed: 359 Knots Altitude 12365 ft
16:45 Gear Down: 189 Knots
16:45 Flaps:1 at 190 Knots
16:46 Flaps:2 at 151 Knots
16:46 Flaps:3 at 145 Knots
16:47 Flaps:4 at 157 Knots
16:48 Flaps:5 at 152 Knots
16:48 TouchDown:Rate -1101 ft/min Speed: 143 Knots
16:48 VATSIM:LFBD 062330Z 18003KT 9999 SCT010 BKN046 12/11 Q1014 TEMPO 5000 -RA BKN008
16:48 Land
16:48 Wind:183º@003 Knots
16:48 Heading: 224º
16:48 Flight Duration: 00:40
16:48 Landing Weight: 202208 Lbs
16:48 POS N44º 49´ 41´´ W000º 42´ 57´´
16:49 Parking brakes on
16:49 Block to Block Duration: 00:47
16:49 Final Fuel: 16441 Lbls
16:49 Spent Fuel: 9556 Lbls
16:49 Flight Length: 2
30 NM
16:49 TOD Land Length: 71 NM

Exportar CSV

Powered by Drupal - Modified by Danger4k